createdAt,value
2018-01-12T00:01:29.914Z,3.10
2018-01-12T00:03:57.414Z,3.10
2018-01-12T00:06:25.673Z,3.10
2018-01-12T00:08:53.242Z,3.10
2018-01-12T00:11:20.731Z,3.10
2018-01-12T00:13:48.265Z,3.10
2018-01-12T00:16:16.505Z,3.10
2018-01-12T00:18:44.095Z,3.10
2018-01-12T00:21:11.578Z,3.10
2018-01-12T00:23:39.828Z,3.10
2018-01-12T00:26:07.424Z,3.10
2018-01-12T00:28:34.909Z,3.10
2018-01-12T00:31:02.413Z,3.10
2018-01-12T00:33:30.671Z,3.10
2018-01-12T00:35:58.143Z,3.00
2018-01-12T00:38:25.619Z,3.10
2018-01-12T00:40:53.871Z,3.00
2018-01-12T00:43:21.351Z,3.00
2018-01-12T00:45:49.594Z,3.10
2018-01-12T00:48:17.078Z,3.00
2018-01-12T00:50:45.319Z,3.00
2018-01-12T00:53:12.786Z,3.00
2018-01-12T00:55:40.276Z,3.10
2018-01-12T00:58:08.523Z,3.10
2018-01-12T01:00:36.094Z,3.10
2018-01-12T01:03:04.378Z,3.10
2018-01-12T01:05:32.622Z,3.10
2018-01-12T01:08:00.098Z,3.10
2018-01-12T01:10:27.598Z,3.10
2018-01-12T01:12:55.163Z,3.10
2018-01-12T01:15:22.642Z,3.10
2018-01-12T01:17:50.175Z,3.10
2018-01-12T01:20:17.711Z,3.10
2018-01-12T01:22:45.955Z,3.10
2018-01-12T01:25:13.447Z,3.10
2018-01-12T01:27:41.716Z,3.10
2018-01-12T01:30:09.979Z,3.10
2018-01-12T01:32:37.467Z,3.00
2018-01-12T01:35:05.974Z,3.00
2018-01-12T01:37:33.451Z,3.00
2018-01-12T01:40:00.951Z,3.10
2018-01-12T01:42:29.263Z,3.10
2018-01-12T01:44:56.738Z,3.00
2018-01-12T01:47:24.223Z,3.00
2018-01-12T01:49:52.474Z,3.10
2018-01-12T01:52:19.942Z,3.10
2018-01-12T01:54:47.534Z,3.10
2018-01-12T01:57:15.011Z,3.00
2018-01-12T01:59:43.280Z,3.00
2018-01-12T02:02:11.529Z,3.00
2018-01-12T02:04:39.109Z,3.00
2018-01-12T02:07:07.358Z,3.00
2018-01-12T02:09:34.848Z,3.00
2018-01-12T02:12:03.093Z,3.10
2018-01-12T02:14:30.581Z,3.10
2018-01-12T02:16:58.879Z,3.10
2018-01-12T02:19:26.366Z,3.10
2018-01-12T02:21:53.841Z,3.10
2018-01-12T02:24:21.323Z,3.10
2018-01-12T02:26:48.805Z,3.10
2018-01-12T02:29:17.067Z,3.10
2018-01-12T02:31:45.379Z,3.10
2018-01-12T02:34:12.863Z,3.10
2018-01-12T02:36:40.334Z,3.10
2018-01-12T02:39:07.824Z,3.20
2018-01-12T02:41:36.067Z,3.20
2018-01-12T02:44:03.543Z,3.20
2018-01-12T02:46:31.043Z,3.20
2018-01-12T02:48:58.575Z,3.20
2018-01-12T02:51:26.846Z,3.10
2018-01-12T02:53:55.100Z,3.10
2018-01-12T02:56:22.683Z,3.10
2018-01-12T02:58:50.934Z,3.20
2018-01-12T03:01:18.426Z,3.10
2018-01-12T03:03:46.670Z,3.20
2018-01-12T03:06:14.146Z,3.10
2018-01-12T03:08:41.716Z,3.10
2018-01-12T03:11:09.958Z,3.10
2018-01-12T03:13:37.441Z,3.10
2018-01-12T03:16:05.726Z,3.10
2018-01-12T03:18:33.632Z,3.10
2018-01-12T03:21:01.152Z,3.10
2018-01-12T03:23:29.401Z,3.10
2018-01-12T03:25:56.967Z,3.00
2018-01-12T03:28:24.444Z,3.10
2018-01-12T03:30:52.714Z,3.10
2018-01-12T03:33:20.252Z,3.10
2018-01-12T03:35:47.731Z,3.10
2018-01-12T03:38:15.993Z,3.10
2018-01-12T03:40:43.475Z,3.10
2018-01-12T03:43:11.722Z,3.10
2018-01-12T03:45:39.205Z,3.10
2018-01-12T03:48:07.499Z,3.10
2018-01-12T03:50:35.738Z,3.10
2018-01-12T03:53:03.223Z,3.10
2018-01-12T03:55:31.466Z,3.20
2018-01-12T03:57:58.940Z,3.10
2018-01-12T04:00:26.526Z,3.20
2018-01-12T04:02:54.792Z,3.20
2018-01-12T04:05:23.058Z,3.10
2018-01-12T04:07:50.542Z,3.10
2018-01-12T04:10:18.082Z,3.20
2018-01-12T04:12:46.602Z,3.20
2018-01-12T04:15:14.465Z,3.20
2018-01-12T04:17:42.040Z,3.20
2018-01-12T04:20:09.522Z,3.20
2018-01-12T04:22:37.005Z,3.20
2018-01-12T04:25:05.288Z,3.20
2018-01-12T04:27:33.522Z,3.30
2018-01-12T04:30:01.010Z,3.20
2018-01-12T04:32:28.485Z,3.20
2018-01-12T04:34:56.755Z,3.20
2018-01-12T04:37:25.030Z,3.20
2018-01-12T04:39:53.301Z,3.20
2018-01-12T04:42:21.547Z,3.20
2018-01-12T04:44:49.037Z,3.20
2018-01-12T04:47:17.296Z,3.20
2018-01-12T04:49:44.775Z,3.20
2018-01-12T04:52:13.051Z,3.20
2018-01-12T04:54:41.293Z,3.10
2018-01-12T04:57:08.774Z,3.10
2018-01-12T04:59:36.278Z,3.10
2018-01-12T05:02:03.758Z,3.10
2018-01-12T05:04:31.243Z,3.10
2018-01-12T05:06:58.738Z,3.00
2018-01-12T05:09:26.983Z,3.00
2018-01-12T05:11:54.455Z,3.00
2018-01-12T05:14:22.711Z,3.00
2018-01-12T05:16:50.188Z,3.00
2018-01-12T05:19:18.436Z,3.00
2018-01-12T05:21:45.922Z,3.00
2018-01-12T05:24:14.166Z,3.00
2018-01-12T05:26:41.658Z,3.00
2018-01-12T05:29:09.906Z,3.00
2018-01-12T05:31:37.486Z,3.00
2018-01-12T05:34:04.973Z,3.00
2018-01-12T05:36:32.454Z,3.00
2018-01-12T05:38:59.940Z,3.00
2018-01-12T05:41:27.416Z,3.00
2018-01-12T05:43:54.913Z,3.00
2018-01-12T05:46:22.385Z,3.00
2018-01-12T05:48:49.864Z,3.00
2018-01-12T05:51:17.359Z,3.00
2018-01-12T05:53:45.597Z,3.00
2018-01-12T05:56:13.093Z,3.00
2018-01-12T05:58:41.349Z,3.00
2018-01-12T06:01:20.816Z,3.00
2018-01-12T06:04:01.067Z,3.00
2018-01-12T06:06:29.307Z,3.00
2018-01-12T06:08:56.778Z,2.90
2018-01-12T06:11:24.353Z,3.00
2018-01-12T06:13:51.834Z,2.90
2018-01-12T06:16:20.066Z,3.00
2018-01-12T06:18:47.554Z,2.90
2018-01-12T06:21:15.827Z,3.00
2018-01-12T06:23:44.130Z,3.00
2018-01-12T06:26:11.618Z,3.00
2018-01-12T06:28:39.094Z,3.00
2018-01-12T06:31:06.570Z,3.00
2018-01-12T06:33:34.138Z,3.00
2018-01-12T06:36:02.377Z,3.00
2018-01-12T06:38:29.856Z,3.00
2018-01-12T06:40:57.352Z,3.00
2018-01-12T06:43:24.826Z,3.00
2018-01-12T06:45:52.304Z,3.00
2018-01-12T06:48:19.797Z,3.00
2018-01-12T06:50:47.277Z,3.00
2018-01-12T06:53:15.537Z,3.00
2018-01-12T06:55:43.813Z,3.00
2018-01-12T06:58:11.294Z,3.00
2018-01-12T07:00:38.838Z,3.00
2018-01-12T07:03:07.123Z,3.00
2018-01-12T07:05:35.367Z,3.10
2018-01-12T07:08:02.842Z,3.00
2018-01-12T07:10:31.123Z,3.10
2018-01-12T07:12:59.369Z,3.00
2018-01-12T07:15:26.839Z,3.00
2018-01-12T07:17:54.418Z,3.10
2018-01-12T07:20:34.570Z,3.20
2018-01-12T07:23:14.722Z,3.20
2018-01-12T07:25:42.198Z,3.20
2018-01-12T07:28:10.438Z,3.20
2018-01-12T07:30:37.954Z,3.10
2018-01-12T07:33:05.424Z,3.20
2018-01-12T07:35:32.901Z,3.20
2018-01-12T07:38:00.386Z,3.30
2018-01-12T07:40:27.866Z,3.20
2018-01-12T07:42:56.125Z,3.20
2018-01-12T07:45:24.407Z,3.20
2018-01-12T07:47:52.808Z,3.20
2018-01-12T07:50:20.295Z,3.20
2018-01-12T07:55:46.911Z,3.20
2018-01-12T07:58:15.157Z,3.20
2018-01-12T08:00:48.358Z,3.20
2018-01-12T08:03:15.845Z,3.10
2018-01-12T08:05:44.086Z,3.10
2018-01-12T08:08:11.671Z,3.10
2018-01-12T08:10:39.922Z,3.00
2018-01-12T08:13:07.414Z,3.00
2018-01-12T08:15:34.906Z,2.90
2018-01-12T08:18:02.398Z,3.00
2018-01-12T08:20:29.880Z,3.00
2018-01-12T08:22:58.118Z,3.10
2018-01-12T08:25:25.606Z,3.10
2018-01-12T08:27:53.982Z,3.10
2018-01-12T08:30:21.454Z,3.10
2018-01-12T08:32:49.721Z,3.20
2018-01-12T08:35:18.002Z,3.30
2018-01-12T08:37:46.246Z,3.40
2018-01-12T08:40:13.737Z,3.40
2018-01-12T08:42:41.977Z,3.50
2018-01-12T08:45:09.453Z,3.50
2018-01-12T08:47:37.717Z,3.60
2018-01-12T08:50:05.234Z,3.60
2018-01-12T08:52:32.716Z,3.70
2018-01-12T08:55:00.207Z,3.70
2018-01-12T08:57:27.686Z,3.80
2018-01-12T08:59:55.961Z,4.00
2018-01-12T09:02:24.222Z,4.10
2018-01-12T09:04:51.703Z,4.10
2018-01-12T09:07:19.946Z,4.10
2018-01-12T09:09:47.430Z,4.10
2018-01-12T09:12:15.703Z,4.30
2018-01-12T09:14:49.538Z,4.50
2018-01-12T09:17:29.039Z,4.50
2018-01-12T09:20:08.526Z,4.60
2018-01-12T09:22:47.450Z,4.70
2018-01-12T09:25:26.403Z,4.70
2018-01-12T09:27:54.830Z,4.70
2018-01-12T09:30:23.065Z,4.70
2018-01-12T09:32:50.562Z,4.70
2018-01-12T09:35:18.830Z,4.70
2018-01-12T09:37:59.046Z,4.70
2018-01-12T09:40:31.455Z,4.70
2018-01-12T09:42:59.707Z,4.60
2018-01-12T09:45:27.181Z,4.60
2018-01-12T09:50:48.831Z,4.50
2018-01-12T09:53:16.325Z,4.50
2018-01-12T09:55:43.797Z,4.40
2018-01-12T09:58:11.311Z,4.40
2018-01-12T10:00:41.224Z,4.30
2018-01-12T10:03:09.499Z,4.20
2018-01-12T10:05:37.743Z,4.20
2018-01-12T10:08:05.231Z,4.20
2018-01-12T10:10:33.482Z,4.30
2018-01-12T10:13:00.971Z,4.30
2018-01-12T10:15:29.232Z,4.40
2018-01-12T10:17:56.814Z,4.40
2018-01-12T10:20:40.038Z,4.40
2018-01-12T10:23:08.273Z,4.30
2018-01-12T10:25:35.768Z,4.30
2018-01-12T10:28:04.014Z,4.40
2018-01-12T10:33:58.972Z,4.50
2018-01-12T10:36:36.247Z,4.50
2018-01-12T10:39:03.747Z,4.50
2018-01-12T10:41:32.127Z,4.50
2018-01-12T10:43:59.617Z,4.50
2018-01-12T10:46:38.885Z,4.70
2018-01-12T10:49:09.093Z,4.80
2018-01-12T10:51:37.283Z,4.70
2018-01-12T10:54:05.539Z,4.70
2018-01-12T10:56:33.008Z,4.70
2018-01-12T10:59:01.261Z,4.70
2018-01-12T11:01:28.849Z,4.70
2018-01-12T11:03:56.346Z,4.90
2018-01-12T11:06:23.822Z,4.90
2018-01-12T11:08:51.311Z,5.00
2018-01-12T11:11:19.003Z,5.10
2018-01-12T11:13:47.255Z,5.50
2018-01-12T11:16:14.738Z,5.40
2018-01-12T11:18:42.974Z,5.80
2018-01-12T11:21:10.558Z,5.80
2018-01-12T11:23:38.840Z,6.10
2018-01-12T11:26:07.357Z,6.40
2018-01-12T11:28:34.834Z,6.40
2018-01-12T11:31:02.322Z,6.80
2018-01-12T11:33:31.294Z,7.30
2018-01-12T11:35:58.774Z,7.30
2018-01-12T11:38:26.261Z,7.50
2018-01-12T11:40:54.496Z,7.50
2018-01-12T11:43:21.972Z,7.40
2018-01-12T11:45:49.541Z,7.50
2018-01-12T11:48:17.827Z,7.20
2018-01-12T11:50:46.061Z,7.10
2018-01-12T11:53:13.550Z,7.10
2018-01-12T11:55:41.799Z,7.00
2018-01-12T11:58:09.277Z,6.90
2018-01-12T12:00:36.775Z,7.10
2018-01-12T12:03:04.241Z,7.30
2018-01-12T12:05:31.814Z,7.40
2018-01-12T12:07:59.886Z,7.80
2018-01-12T12:10:27.388Z,8.20
2018-01-12T12:12:55.630Z,8.40
2018-01-12T12:15:23.118Z,8.40
2018-01-12T12:17:50.594Z,8.60
2018-01-12T12:20:18.840Z,8.70
2018-01-12T12:22:46.324Z,8.60
2018-01-12T12:25:14.748Z,8.60
2018-01-12T12:27:42.244Z,8.60
2018-01-12T12:30:09.726Z,8.60
2018-01-12T12:32:37.965Z,8.40
2018-01-12T12:35:05.446Z,8.40
2018-01-12T12:37:33.726Z,8.20
2018-01-12T12:40:01.976Z,8.20
2018-01-12T12:42:29.453Z,8.20
2018-01-12T12:44:56.939Z,8.00
2018-01-12T12:47:24.419Z,8.00
2018-01-12T12:49:51.919Z,8.10
2018-01-12T12:52:19.407Z,8.20
2018-01-12T12:54:47.651Z,8.30
2018-01-12T12:57:15.136Z,8.30
2018-01-12T12:59:43.387Z,8.40
2018-01-12T13:02:10.867Z,8.40
2018-01-12T13:04:39.139Z,8.30
2018-01-12T13:07:07.389Z,8.10
2018-01-12T13:09:34.914Z,8.10
2018-01-12T13:12:02.511Z,8.00
2018-01-12T13:14:29.998Z,8.00
2018-01-12T13:16:58.288Z,7.90
2018-01-12T13:19:25.826Z,7.80
2018-01-12T13:21:54.110Z,7.80
2018-01-12T13:24:22.350Z,7.80
2018-01-12T13:26:50.050Z,7.80
2018-01-12T13:29:18.354Z,7.80
2018-01-12T13:31:45.835Z,7.80
2018-01-12T13:34:13.302Z,7.80
2018-01-12T13:36:40.808Z,7.80
2018-01-12T13:39:09.050Z,7.70
2018-01-12T13:41:36.530Z,7.70
2018-01-12T13:44:04.082Z,7.80
2018-01-12T13:46:32.609Z,8.20
2018-01-12T13:49:00.083Z,8.20
2018-01-12T13:51:27.579Z,8.40
2018-01-12T13:53:55.063Z,8.40
2018-01-12T13:56:23.307Z,8.30
2018-01-12T13:58:50.889Z,8.20
2018-01-12T14:01:19.141Z,8.00
2018-01-12T14:03:46.609Z,8.00
2018-01-12T14:06:14.103Z,7.90
2018-01-12T14:08:41.635Z,7.70
2018-01-12T14:11:09.083Z,7.60
2018-01-12T14:13:36.577Z,7.50
2018-01-12T14:16:04.105Z,7.30
2018-01-12T14:18:31.579Z,7.30
2018-01-12T14:20:59.830Z,7.10
2018-01-12T14:23:27.322Z,7.10
2018-01-12T14:25:54.826Z,7.10
2018-01-12T14:28:22.310Z,7.00
2018-01-12T14:30:49.782Z,7.00
2018-01-12T14:33:18.890Z,6.80
2018-01-12T14:35:46.382Z,6.80
2018-01-12T14:38:13.886Z,6.70
2018-01-12T14:40:42.130Z,6.60
2018-01-12T14:43:09.622Z,6.60
2018-01-12T14:45:37.882Z,6.60
2018-01-12T14:48:05.502Z,6.60
2018-01-12T14:50:33.094Z,6.60
2018-01-12T14:53:00.622Z,6.50
2018-01-12T14:55:28.835Z,6.20
2018-01-12T14:57:56.323Z,6.20
2018-01-12T15:00:24.981Z,6.10
2018-01-12T15:02:52.557Z,6.10
2018-01-12T15:05:20.119Z,6.00
2018-01-12T15:07:48.363Z,5.80
2018-01-12T15:10:15.857Z,5.80
2018-01-12T15:12:44.113Z,5.50
2018-01-12T15:15:11.611Z,5.50
2018-01-12T15:17:39.088Z,5.40
2018-01-12T15:20:06.767Z,5.20
2018-01-12T15:22:34.390Z,5.10
2018-01-12T15:25:02.640Z,4.90
2018-01-12T15:27:30.127Z,4.80
2018-01-12T15:29:57.622Z,4.80
2018-01-12T15:32:25.102Z,4.70
2018-01-12T15:34:52.594Z,4.60
2018-01-12T15:37:20.838Z,4.50
2018-01-12T15:39:48.322Z,4.40
2018-01-12T15:42:16.594Z,4.30
2018-01-12T15:44:44.850Z,4.20
2018-01-12T15:47:12.330Z,4.20
2018-01-12T15:49:39.946Z,4.10
2018-01-12T15:52:07.417Z,4.00
2018-01-12T15:54:34.894Z,3.90
2018-01-12T15:57:02.433Z,3.80
2018-01-12T15:59:29.910Z,3.80
2018-01-12T16:01:57.399Z,3.80
2018-01-12T16:04:24.895Z,3.70
2018-01-12T16:06:52.369Z,3.80
2018-01-12T16:09:19.849Z,3.80
2018-01-12T16:11:48.153Z,3.80
2018-01-12T16:14:15.629Z,3.80
2018-01-12T16:16:43.109Z,3.80
2018-01-12T16:19:10.649Z,3.80
2018-01-12T16:21:38.131Z,3.70
2018-01-12T16:24:05.626Z,3.60
2018-01-12T16:26:33.903Z,3.30
2018-01-12T16:29:02.192Z,3.20
2018-01-12T16:31:29.675Z,3.10
2018-01-12T16:33:57.179Z,3.10
2018-01-12T16:36:24.666Z,3.00
2018-01-12T16:38:52.155Z,3.00
2018-01-12T16:41:19.640Z,3.00
2018-01-12T16:43:47.114Z,3.00
2018-01-12T16:46:14.648Z,3.00
2018-01-12T16:48:42.246Z,3.00
2018-01-12T16:51:10.523Z,3.00
2018-01-12T16:53:38.766Z,3.00
2018-01-12T16:56:06.256Z,3.00
2018-01-12T16:58:35.110Z,3.00
2018-01-12T17:01:02.582Z,3.00
2018-01-12T17:03:30.122Z,3.00
2018-01-12T17:05:57.622Z,3.00
2018-01-12T17:08:25.865Z,3.10
2018-01-12T17:10:53.453Z,3.10
2018-01-12T17:13:20.933Z,3.20
2018-01-12T17:15:48.483Z,3.20
2018-01-12T17:18:16.997Z,3.30
2018-01-12T17:20:44.529Z,3.30
2018-01-12T17:23:12.775Z,3.40
2018-01-12T17:25:41.072Z,3.40
2018-01-12T17:28:10.351Z,3.30
2018-01-12T17:30:39.333Z,3.20
2018-01-12T17:33:06.823Z,3.20
2018-01-12T17:35:35.061Z,2.90
2018-01-12T17:38:02.533Z,2.90
2018-01-12T17:40:30.023Z,2.80
2018-01-12T17:42:58.273Z,2.60
2018-01-12T17:45:25.788Z,2.50
2018-01-12T17:47:53.310Z,2.50
2018-01-12T17:50:21.570Z,2.40
2018-01-12T17:52:49.182Z,2.40
2018-01-12T17:55:17.500Z,2.40
2018-01-12T17:57:45.935Z,2.50
2018-01-12T18:00:13.634Z,2.40
2018-01-12T18:02:41.258Z,2.50
2018-01-12T18:05:08.838Z,2.60
2018-01-12T18:07:37.082Z,2.70
2018-01-12T18:10:05.074Z,2.70
2018-01-12T18:12:32.682Z,2.80
2018-01-12T18:15:00.215Z,2.90
2018-01-12T18:17:27.801Z,3.00
2018-01-12T18:19:55.289Z,3.00
2018-01-12T18:22:22.803Z,3.10
2018-01-12T18:24:50.305Z,3.20
2018-01-12T18:27:18.614Z,3.20
2018-01-12T18:29:46.093Z,3.30
2018-01-12T18:32:13.585Z,3.30
2018-01-12T18:34:41.839Z,3.30
2018-01-12T18:37:09.338Z,3.30
2018-01-12T18:39:36.935Z,3.30
2018-01-12T18:42:04.450Z,3.30
2018-01-12T18:44:32.031Z,3.30
2018-01-12T18:46:59.532Z,3.30
2018-01-12T18:49:27.018Z,3.30
2018-01-12T18:51:55.302Z,3.30
2018-01-12T18:54:23.684Z,3.30
2018-01-12T18:56:51.950Z,3.30
2018-01-12T18:59:20.227Z,3.40
2018-01-12T19:01:48.600Z,3.40
2018-01-12T19:04:16.946Z,3.30
2018-01-12T19:06:44.419Z,3.30
2018-01-12T19:09:12.685Z,3.30
2018-01-12T19:11:40.189Z,3.30
2018-01-12T19:14:08.497Z,3.40
2018-01-12T19:16:36.001Z,3.40
2018-01-12T19:19:03.487Z,3.50
2018-01-12T19:21:30.971Z,3.50
2018-01-12T19:23:58.471Z,3.50
2018-01-12T19:26:26.015Z,3.60
2018-01-12T19:28:53.540Z,3.60
2018-01-12T19:31:21.099Z,3.60
2018-01-12T19:33:48.592Z,3.60
2018-01-12T19:36:16.090Z,3.70
2018-01-12T19:38:44.370Z,3.70
2018-01-12T19:41:11.880Z,3.70
2018-01-12T19:43:39.376Z,3.70
2018-01-12T19:46:07.992Z,3.70
2018-01-12T19:48:35.496Z,3.70
2018-01-12T19:51:02.990Z,3.80
2018-01-12T19:53:30.483Z,3.80
2018-01-12T19:55:57.962Z,3.80
2018-01-12T19:58:25.438Z,3.80
2018-01-12T20:00:52.935Z,3.80
2018-01-12T20:03:20.489Z,3.80
2018-01-12T20:05:48.057Z,3.80
2018-01-12T20:08:15.547Z,3.80
2018-01-12T20:10:43.083Z,3.80
2018-01-12T20:13:10.573Z,3.70
2018-01-12T20:15:38.083Z,3.70
2018-01-12T20:18:05.595Z,3.70
2018-01-12T20:20:33.176Z,3.60
2018-01-12T20:23:01.443Z,3.60
2018-01-12T20:25:28.961Z,3.60
2018-01-12T20:27:57.219Z,3.70
2018-01-12T20:30:24.771Z,3.70
2018-01-12T20:32:52.250Z,3.70
2018-01-12T20:35:19.726Z,3.70
2018-01-12T20:37:47.226Z,3.70
2018-01-12T20:40:15.810Z,3.70
2018-01-12T20:42:44.078Z,3.70
2018-01-12T20:45:12.358Z,3.70
2018-01-12T20:47:40.612Z,3.70
2018-01-12T20:50:08.593Z,3.70
2018-01-12T20:52:36.112Z,3.70
2018-01-12T20:55:03.627Z,3.70
2018-01-12T20:57:31.902Z,3.70
2018-01-12T21:00:00.179Z,3.70
2018-01-12T21:02:28.422Z,3.70
2018-01-12T21:04:55.978Z,3.70
2018-01-12T21:07:23.473Z,3.80
2018-01-12T21:09:51.735Z,4.30
2018-01-12T21:12:19.334Z,4.30
2018-01-12T21:14:46.919Z,4.40
2018-01-12T21:17:14.553Z,4.40
2018-01-12T21:19:42.783Z,4.20
2018-01-12T21:22:10.363Z,4.20
2018-01-12T21:24:38.607Z,4.00
2018-01-12T21:27:06.143Z,4.00
2018-01-12T21:29:33.635Z,4.00
2018-01-12T21:32:01.934Z,3.80
2018-01-12T21:34:29.415Z,3.80
2018-01-12T21:36:56.958Z,3.80
2018-01-12T21:39:25.209Z,3.70
2018-01-12T21:41:53.015Z,3.70
2018-01-12T21:44:20.591Z,3.70
2018-01-12T21:46:48.114Z,3.70
2018-01-12T21:49:16.402Z,3.50
2018-01-12T21:51:44.676Z,3.40
2018-01-12T21:54:12.927Z,3.30
2018-01-12T21:56:40.410Z,3.30
2018-01-12T21:59:08.662Z,3.10
2018-01-12T22:01:36.140Z,3.10
2018-01-12T22:04:04.386Z,3.00
2018-01-12T22:06:31.883Z,3.00
2018-01-12T22:09:00.126Z,2.90
2018-01-12T22:11:27.601Z,2.90
2018-01-12T22:13:55.857Z,2.70
2018-01-12T22:16:23.342Z,2.70
2018-01-12T22:18:50.823Z,2.60
2018-01-12T22:21:18.367Z,2.50
2018-01-12T22:23:46.635Z,2.30
2018-01-12T22:26:14.878Z,2.10
2018-01-12T22:28:42.388Z,2.10
2018-01-12T22:31:09.861Z,2.10
2018-01-12T22:33:37.379Z,2.00
2018-01-12T22:36:04.943Z,2.00
2018-01-12T22:38:33.195Z,1.90
2018-01-12T22:41:00.687Z,1.90
2018-01-12T22:43:28.929Z,1.90
2018-01-12T22:45:56.407Z,1.90
2018-01-12T22:48:23.877Z,1.90
2018-01-12T22:50:52.139Z,1.90
2018-01-12T22:53:19.619Z,1.80
2018-01-12T22:55:47.096Z,1.80
2018-01-12T22:58:14.586Z,1.80
2018-01-12T23:00:42.070Z,1.70
2018-01-12T23:03:09.550Z,1.60
2018-01-12T23:05:37.810Z,1.50
2018-01-12T23:08:06.050Z,1.40
2018-01-12T23:10:33.526Z,1.40
2018-01-12T23:13:01.010Z,1.40
2018-01-12T23:15:29.253Z,1.20
2018-01-12T23:17:56.726Z,1.20
2018-01-12T23:20:24.213Z,1.10
2018-01-12T23:22:51.698Z,1.10
2018-01-12T23:25:19.166Z,1.00
2018-01-12T23:27:46.650Z,0.90
2018-01-12T23:30:14.240Z,0.90
2018-01-12T23:32:42.513Z,0.80
2018-01-12T23:35:10.791Z,0.70
2018-01-12T23:37:39.033Z,0.70
2018-01-12T23:40:06.520Z,0.70
2018-01-12T23:42:34.771Z,0.60
2018-01-12T23:45:03.069Z,0.60
2018-01-12T23:47:31.313Z,0.50
2018-01-12T23:49:58.803Z,0.50
2018-01-12T23:52:27.085Z,0.50
2018-01-12T23:54:55.334Z,0.50
2018-01-12T23:57:23.738Z,0.50
2018-01-12T23:59:51.982Z,0.40
